Golden, Missouri
Current Conditions -  °F | °C
As of 1:35 AM on Sunday 23 Nov 2014 (Local Time) from KFWB Reporting Station
Overcast Overcast  
Wind Chill: 54°   Ceiling: 1600
Heat Index: 54°   Visibility: 10mi
Dew Point: 54°   Wind: 9mph
Humidity: 100%   Direction: 110°ESE
Pressure: 29.71"   Gusts: NA
Location:  36.52°N, 93.65°W
Report Text: KFWB 230735Z AUTO 11008KT 10SM OVC016 12/12 A2971 RMK AO2
Loading
Personal Weather Stations






























Interactive Weather Map New forecast layout! Learn more

10-Day Weather Forecast

Advertisements
Track Severe Weather on mobile